Airport View

Enter AWOS ICAO identifier for current METAR.

ex. KFNL

KCNY 251153Z AUTO 00000KT 10SM CLR 14/M04 A2999 RMK AO2 SLP099 T01391039 10244 20122 53007

25 Sep 2020 12:45

Frequency: 118.525

Phone: 435-259-8576

Other Area AWOS: KHVE - KGJT - KAIB - KPUC

TAF KCNY 251121Z 2512/2612 23003KT P6SM SCT250 FM251700 21006KT P6SM FEW250 FM251900 24013G21KT P6SM FEW250 FM260200 27007KT P6SM SKC